createdAt,value
2018-02-12T13:16:46.023Z,975.8
2018-02-12T13:17:48.489Z,975.8
2018-02-12T13:18:51.239Z,975.9
2018-02-12T13:19:53.820Z,975.9
2018-02-12T13:20:56.301Z,975.9
2018-02-12T13:21:58.868Z,975.9
2018-02-12T13:23:01.491Z,975.9
2018-02-12T13:24:04.030Z,975.8
2018-02-12T13:25:06.605Z,975.9
2018-02-12T13:26:09.120Z,975.9
2018-02-12T13:27:11.876Z,975.9
2018-02-12T13:28:14.496Z,975.9
2018-02-12T13:29:17.054Z,975.7
2018-02-12T13:30:19.604Z,976
2018-02-12T13:31:22.207Z,975.9
2018-02-12T13:32:24.670Z,975.8
2018-02-12T13:33:27.291Z,976
2018-02-12T13:34:29.875Z,976
2018-02-12T13:35:32.363Z,976
2018-02-12T13:36:34.819Z,976.1
2018-02-12T13:37:37.424Z,976
2018-02-12T13:38:39.906Z,976.1
2018-02-12T13:39:42.426Z,976.1
2018-02-12T13:40:44.867Z,976
2018-02-12T13:41:47.645Z,976.1
2018-02-12T13:42:50.179Z,976.1
2018-02-12T13:43:52.659Z,976.1
2018-02-12T13:44:55.150Z,976.1
2018-02-12T13:45:57.724Z,976.1
2018-02-12T13:47:05.552Z,976.1
2018-02-12T13:48:08.374Z,976
2018-02-12T13:49:11.160Z,976.1
2018-02-12T13:50:13.636Z,976.1
2018-02-12T13:51:16.406Z,976.1
2018-02-12T13:52:18.989Z,976.1
2018-02-12T13:53:21.486Z,975.9
2018-02-12T13:54:28.307Z,976.1
2018-02-12T13:55:30.930Z,976.1
2018-02-12T13:56:33.433Z,976.1
2018-02-12T13:57:36.153Z,976
2018-02-12T13:58:38.741Z,976
2018-02-12T13:59:41.444Z,976
2018-02-12T14:00:44.089Z,976
2018-02-12T14:01:46.676Z,975.8
2018-02-12T14:02:49.483Z,976
2018-02-12T14:03:51.981Z,976
2018-02-12T14:04:55.508Z,975.8
2018-02-12T14:05:58.016Z,976
2018-02-12T14:07:06.499Z,975.9
2018-02-12T14:08:09.548Z,976
2018-02-12T14:09:12.178Z,976
2018-02-12T14:10:14.675Z,976
2018-02-12T14:11:17.309Z,976.1
2018-02-12T14:12:19.864Z,976
2018-02-12T14:13:22.375Z,976.1
2018-02-12T14:14:24.942Z,976.1
2018-02-12T14:15:27.569Z,976.1
2018-02-12T14:16:30.188Z,976.1
2018-02-12T14:17:32.670Z,976.1
2018-02-12T14:18:35.122Z,976.1
2018-02-12T14:19:37.676Z,976.1
2018-02-12T14:20:40.189Z,976.1
2018-02-12T14:21:42.828Z,976
2018-02-12T14:22:45.438Z,976.1
2018-02-12T14:23:48.096Z,976.2
2018-02-12T14:24:50.714Z,976.2
2018-02-12T14:25:53.268Z,976.2
2018-02-12T14:26:56.022Z,976.2
2018-02-12T14:27:58.521Z,976.2
2018-02-12T14:29:01.167Z,976.2
2018-02-12T14:30:03.947Z,976.2
2018-02-12T14:31:06.557Z,976.2
2018-02-12T14:32:09.190Z,976.2
2018-02-12T14:33:11.762Z,976.2
2018-02-12T14:34:14.278Z,976.1
2018-02-12T14:35:16.862Z,976.2
2018-02-12T14:36:19.470Z,976.2
2018-02-12T14:37:22.063Z,976.2
2018-02-12T14:37:39.493Z,976.1
2018-02-12T14:38:42.054Z,976.2
2018-02-12T14:39:44.585Z,976.2
2018-02-12T14:40:47.246Z,976.2
2018-02-12T14:41:49.806Z,976
2018-02-12T14:42:52.637Z,976.2
2018-02-12T14:43:55.213Z,976.3
2018-02-12T14:44:57.921Z,976.3
2018-02-12T14:46:00.534Z,976.3
2018-02-12T14:47:05.729Z,976.3
2018-02-12T14:48:08.353Z,976.4
2018-02-12T14:49:12.036Z,976.3
2018-02-12T14:50:14.624Z,976.3
2018-02-12T14:51:17.247Z,976.2
2018-02-12T14:52:20.741Z,976.4
2018-02-12T14:53:23.164Z,976.4
2018-02-12T14:54:25.762Z,976.2
2018-02-12T14:55:28.327Z,976.3
2018-02-12T14:56:30.754Z,976.3
2018-02-12T14:57:33.277Z,976.2
2018-02-12T14:58:36.019Z,976.3
2018-02-12T14:59:38.585Z,976.3
2018-02-12T15:00:41.068Z,976.3
2018-02-12T15:01:43.537Z,976.3
2018-02-12T15:02:46.035Z,976.3
2018-02-12T15:03:48.577Z,976.3
2018-02-12T15:04:51.166Z,976.4
2018-02-12T15:05:53.737Z,976.3
2018-02-12T15:06:56.240Z,976.3
2018-02-12T15:07:58.842Z,976.3
2018-02-12T15:09:01.449Z,976.3
2018-02-12T15:10:03.981Z,976.3
2018-02-12T15:11:06.612Z,976.3
2018-02-12T15:12:09.313Z,976.3
2018-02-12T15:13:11.886Z,976.3
2018-02-12T15:14:14.409Z,976.4
2018-02-12T15:15:16.967Z,976.4
2018-02-12T15:16:19.460Z,976.4
2018-02-12T15:17:22.757Z,976.4
2018-02-12T15:18:25.399Z,976.4
2018-02-12T15:19:27.999Z,976.4
2018-02-12T15:20:30.479Z,976.4
2018-02-12T15:21:33.003Z,976.5
2018-02-12T15:22:35.457Z,976.5
2018-02-12T15:23:38.094Z,976.4
2018-02-12T15:24:40.679Z,976.4
2018-02-12T15:25:43.178Z,976.4
2018-02-12T15:26:45.601Z,976.5
2018-02-12T15:27:48.112Z,976.5
2018-02-12T15:28:50.623Z,976.4
2018-02-12T15:29:53.105Z,976.5
2018-02-12T15:30:55.631Z,976.5
2018-02-12T15:31:58.263Z,976.6
2018-02-12T15:33:00.873Z,976.4
2018-02-12T15:34:03.366Z,976.6
2018-02-12T15:35:05.936Z,976.6
2018-02-12T15:36:08.523Z,976.5
2018-02-12T15:37:11.040Z,976.6
2018-02-12T15:38:13.512Z,976.4
2018-02-12T15:39:15.981Z,976.6
2018-02-12T15:40:18.500Z,976.7
2018-02-12T15:41:21.010Z,976.6
2018-02-12T15:42:23.570Z,976.8
2018-02-12T15:43:26.072Z,976.8
2018-02-12T15:44:29.095Z,976.8
2018-02-12T15:45:31.609Z,977
2018-02-12T15:46:34.206Z,976.9
2018-02-12T15:47:36.860Z,976.9
2018-02-12T15:48:39.618Z,976.6
2018-02-12T15:49:42.126Z,976.9
2018-02-12T15:50:44.670Z,976.9
2018-02-12T15:51:47.223Z,976.9
2018-02-12T15:52:53.638Z,976.9
2018-02-12T15:53:56.210Z,976.9
2018-02-12T15:54:58.759Z,976.9
2018-02-12T15:56:01.330Z,976.9
2018-02-12T15:57:03.952Z,976.7
2018-02-12T15:58:07.151Z,976.9
2018-02-12T15:59:09.625Z,976.9
2018-02-12T16:00:12.143Z,976.9
2018-02-12T16:01:17.319Z,976.9
2018-02-12T16:02:19.824Z,976.9
2018-02-12T16:03:25.546Z,976.9
2018-02-12T16:04:28.230Z,976.9
2018-02-12T16:05:30.767Z,976.8
2018-02-12T16:06:34.084Z,976.9
2018-02-12T16:07:36.601Z,976.9
2018-02-12T16:08:39.343Z,976.8
2018-02-12T16:09:41.833Z,976.9
2018-02-12T16:10:44.396Z,976.9
2018-02-12T16:11:47.043Z,976.9
2018-02-12T16:12:51.959Z,977
2018-02-12T16:13:54.497Z,977
2018-02-12T16:14:57.060Z,977.1
2018-02-12T16:15:59.774Z,976.9
2018-02-12T16:17:02.339Z,977.1
2018-02-12T16:18:04.889Z,977.1
2018-02-12T16:19:08.041Z,977.1
2018-02-12T16:20:10.520Z,977.1
2018-02-12T16:21:13.015Z,976.9
2018-02-12T16:22:15.875Z,977
2018-02-12T16:23:18.597Z,977
2018-02-12T16:24:21.159Z,977
2018-02-12T16:25:23.769Z,977
2018-02-12T16:26:26.357Z,977
2018-02-12T16:27:28.972Z,977
2018-02-12T16:28:31.423Z,977.1
2018-02-12T16:29:33.948Z,977.1
2018-02-12T16:30:36.459Z,977.1
2018-02-12T16:31:39.177Z,977
2018-02-12T16:32:41.678Z,977.2
2018-02-12T16:33:44.213Z,977.2
2018-02-12T16:34:46.697Z,977.1
2018-02-12T16:35:49.478Z,977.2
2018-02-12T16:36:51.937Z,977.2
2018-02-12T16:37:54.474Z,977.1
2018-02-12T16:38:56.978Z,977.2
2018-02-12T16:39:59.527Z,977.2
2018-02-12T16:41:02.143Z,977.2
2018-02-12T16:42:04.652Z,977.2
2018-02-12T16:43:07.532Z,977.1
2018-02-12T16:44:10.021Z,977.2
2018-02-12T16:45:12.511Z,977.2
2018-02-12T16:46:15.023Z,977.1
2018-02-12T16:47:17.550Z,977.2
2018-02-12T16:48:20.045Z,977.3
2018-02-12T16:49:22.523Z,977.2
2018-02-12T16:50:25.087Z,977.1
2018-02-12T16:51:27.981Z,977.3
2018-02-12T16:52:30.504Z,977.3
2018-02-12T16:53:33.952Z,977.3
2018-02-12T16:54:36.401Z,977.3
2018-02-12T16:55:39.000Z,977.3
2018-02-12T16:56:41.579Z,977.3
2018-02-12T16:57:44.229Z,977.3
2018-02-12T16:58:46.686Z,977.3
2018-02-12T16:59:49.313Z,977.2
2018-02-12T17:00:51.809Z,977.3
2018-02-12T17:01:54.349Z,977.3
2018-02-12T17:02:56.877Z,977.3
2018-02-12T17:03:59.511Z,977.4
2018-02-12T17:05:02.084Z,977.4
2018-02-12T17:06:04.675Z,977.4
2018-02-12T17:07:07.291Z,977.4
2018-02-12T17:08:09.957Z,977.4
2018-02-12T17:09:12.495Z,977.4
2018-02-12T17:10:14.972Z,977.5
2018-02-12T17:11:17.484Z,977.4
2018-02-12T17:12:20.091Z,977.5
2018-02-12T17:13:22.618Z,977.5
2018-02-12T17:14:25.163Z,977.5
2018-02-12T17:15:27.757Z,977.5
2018-02-12T17:16:34.212Z,977.5
2018-02-12T17:17:36.716Z,977.4
2018-02-12T17:18:39.493Z,977.5
2018-02-12T17:19:42.055Z,977.5
2018-02-12T17:20:44.657Z,977.4
2018-02-12T17:21:47.255Z,977.6
2018-02-12T17:22:49.799Z,977.4
2018-02-12T17:23:52.399Z,977.5
2018-02-12T17:24:55.130Z,977.4
2018-02-12T17:25:57.699Z,977.5
2018-02-12T17:27:00.187Z,977.6
2018-02-12T17:28:03.059Z,977.6
2018-02-12T17:29:05.621Z,977.6
2018-02-12T17:30:08.213Z,977.6
2018-02-12T17:31:10.728Z,977.6
2018-02-12T17:32:13.280Z,977.7
2018-02-12T17:33:15.737Z,977.6
2018-02-12T17:34:18.227Z,977.6
2018-02-12T17:35:20.795Z,977.7
2018-02-12T17:36:23.343Z,977.7
2018-02-12T17:37:25.795Z,977.6
2018-02-12T17:38:28.364Z,977.7
2018-02-12T17:39:30.996Z,977.7
2018-02-12T17:40:33.621Z,977.6
2018-02-12T17:41:36.211Z,977.8
2018-02-12T17:42:41.319Z,977.5
2018-02-12T17:43:44.357Z,977.9
2018-02-12T17:44:46.968Z,977.8
2018-02-12T17:45:49.597Z,977.7
2018-02-12T17:46:52.096Z,977.8
2018-02-12T17:47:56.278Z,977.9
2018-02-12T17:48:58.792Z,977.9
2018-02-12T17:50:02.298Z,977.9
2018-02-12T17:51:04.869Z,977.9
2018-02-12T17:52:07.485Z,977.9
2018-02-12T17:53:10.099Z,977.9
2018-02-12T17:54:12.650Z,977.9
2018-02-12T17:55:15.159Z,977.9
2018-02-12T17:56:23.590Z,977.8
2018-02-12T17:57:26.028Z,977.9
2018-02-12T17:58:28.625Z,978
2018-02-12T17:59:31.113Z,978
2018-02-12T18:00:33.676Z,978
2018-02-12T18:01:36.798Z,978
2018-02-12T18:02:42.112Z,977.9
2018-02-12T18:03:44.595Z,977.9
2018-02-12T18:04:47.023Z,978
2018-02-12T18:05:49.651Z,978
2018-02-12T18:06:52.236Z,978
2018-02-12T18:07:54.686Z,978
2018-02-12T18:08:57.239Z,978
2018-02-12T18:09:59.841Z,978.1
2018-02-12T18:11:02.328Z,978.1
2018-02-12T18:12:04.824Z,978.1
2018-02-12T18:13:09.958Z,978.1
2018-02-12T18:14:12.432Z,978.1
2018-02-12T18:15:14.942Z,978.2
2018-02-12T18:16:17.451Z,978.2
2018-02-12T18:17:25.608Z,978
2018-02-12T18:18:28.159Z,978.2
2018-02-12T18:19:30.679Z,978.2
2018-02-12T18:20:33.183Z,978.2
2018-02-12T18:21:35.672Z,978.2
2018-02-12T18:22:38.373Z,978.2
2018-02-12T18:23:41.024Z,978.2
2018-02-12T18:24:43.492Z,978.3
2018-02-12T18:25:46.005Z,978.3
2018-02-12T18:26:48.593Z,978.1
2018-02-12T18:27:51.115Z,978.1
2018-02-12T18:28:53.600Z,978.3
2018-02-12T18:29:56.166Z,978.2
2018-02-12T18:30:58.675Z,978.4
2018-02-12T18:32:01.154Z,978.3
2018-02-12T18:33:03.669Z,978.4
2018-02-12T18:34:06.145Z,978.4
2018-02-12T18:35:08.731Z,978.4
2018-02-12T18:36:11.268Z,978.4
2018-02-12T18:37:13.823Z,978.4
2018-02-12T18:38:16.365Z,978.5
2018-02-12T18:39:18.853Z,978.4
2018-02-12T18:40:21.543Z,978.4
2018-02-12T18:41:24.025Z,978.5
2018-02-12T18:42:26.508Z,978.5
2018-02-12T18:43:29.063Z,978.5
2018-02-12T18:44:31.697Z,978.5
2018-02-12T18:45:34.184Z,978.5
2018-02-12T18:46:36.693Z,978.6
2018-02-12T18:47:39.265Z,978.6
2018-02-12T18:48:42.590Z,978.6
2018-02-12T18:49:45.144Z,978.6
2018-02-12T18:50:47.668Z,978.6
2018-02-12T18:51:50.152Z,978.5
2018-02-12T18:52:52.706Z,978.5
2018-02-12T18:53:55.215Z,978.7
2018-02-12T18:54:57.684Z,978.7
2018-02-12T18:56:00.164Z,978.8
2018-02-12T18:57:04.948Z,978.7
2018-02-12T18:58:08.180Z,978.9
2018-02-12T18:59:10.659Z,978.9
2018-02-12T19:00:13.128Z,979
2018-02-12T19:01:15.672Z,978.9
2018-02-12T19:02:18.202Z,978.9
2018-02-12T19:03:20.752Z,978.9
2018-02-12T19:04:23.233Z,979
2018-02-12T19:05:25.933Z,978.9
2018-02-12T19:06:28.773Z,978.9
2018-02-12T19:07:31.662Z,978.9
2018-02-12T19:08:34.139Z,978.8
2018-02-12T19:09:45.231Z,978.8
2018-02-12T19:10:47.800Z,978.8
2018-02-12T19:11:50.372Z,978.8
2018-02-12T19:12:52.942Z,978.7
2018-02-12T19:13:56.108Z,978.7
2018-02-12T19:14:58.646Z,978.7
2018-02-12T19:16:01.144Z,978.7
2018-02-12T19:17:03.848Z,978.7
2018-02-12T19:18:06.564Z,978.5
2018-02-12T19:19:09.066Z,978.7
2018-02-12T19:20:11.575Z,978.6
2018-02-12T19:21:14.157Z,978.6
2018-02-12T19:22:16.653Z,978.6
2018-02-12T19:23:19.181Z,978.6
2018-02-12T19:24:21.635Z,978.6
2018-02-12T19:25:24.157Z,978.6
2018-02-12T19:26:26.739Z,978.6
2018-02-12T19:27:29.254Z,978.6
2018-02-12T19:28:31.772Z,978.6
2018-02-12T19:29:34.481Z,978.6
2018-02-12T19:30:36.920Z,978.6
2018-02-12T19:31:39.508Z,978.4
2018-02-12T19:32:42.011Z,978.6
2018-02-12T19:33:44.497Z,978.6
2018-02-12T19:34:46.933Z,978.6
2018-02-12T19:35:49.684Z,978.6
2018-02-12T19:36:52.076Z,978.6
2018-02-12T19:37:54.530Z,978.6
2018-02-12T19:38:56.946Z,978.6
2018-02-12T19:39:59.557Z,978.6
2018-02-12T19:41:02.068Z,978.6
2018-02-12T19:42:04.571Z,978.6
2018-02-12T19:43:07.011Z,978.6
2018-02-12T19:44:09.504Z,978.6
2018-02-12T19:45:11.944Z,978.6
2018-02-12T19:46:20.658Z,978.5
2018-02-12T19:47:23.153Z,978.6
2018-02-12T19:48:25.640Z,978.6
2018-02-12T19:49:28.237Z,978.6
2018-02-12T19:50:31.645Z,978.6
2018-02-12T19:51:34.223Z,978.6
2018-02-12T19:52:36.668Z,978.6
2018-02-12T19:53:39.168Z,978.7
2018-02-12T19:54:41.658Z,978.7
2018-02-12T19:55:46.601Z,978.5
2018-02-12T19:56:49.159Z,978.5
2018-02-12T19:57:51.646Z,978.7
2018-02-12T19:58:54.147Z,978.7
2018-02-12T19:59:56.622Z,978.7
2018-02-12T20:00:59.097Z,978.7
2018-02-12T20:02:01.634Z,978.5
2018-02-12T20:03:05.255Z,978.7
2018-02-12T20:04:07.803Z,978.7
2018-02-12T20:05:10.298Z,978.6
2018-02-12T20:06:12.734Z,978.7
2018-02-12T20:07:15.231Z,978.7
2018-02-12T20:08:17.834Z,978.7
2018-02-12T20:09:20.356Z,978.7
2018-02-12T20:10:22.903Z,978.7
2018-02-12T20:11:25.397Z,978.8
2018-02-12T20:12:27.848Z,978.7
2018-02-12T20:13:32.103Z,978.8
2018-02-12T20:14:34.571Z,978.8
2018-02-12T20:15:37.074Z,978.8
2018-02-12T20:16:39.651Z,978.7
2018-02-12T20:17:42.136Z,978.6
2018-02-12T20:18:44.691Z,978.8
2018-02-12T20:19:47.210Z,978.7
2018-02-12T20:20:49.725Z,978.7
2018-02-12T20:21:52.235Z,978.8
2018-02-12T20:22:54.759Z,978.7
2018-02-12T20:23:57.226Z,978.9
2018-02-12T20:24:59.788Z,978.9
2018-02-12T20:26:02.352Z,978.9
2018-02-12T20:27:04.852Z,978.8
2018-02-12T20:28:10.730Z,979
2018-02-12T20:29:13.376Z,979
2018-02-12T20:30:15.936Z,978.9
2018-02-12T20:31:18.442Z,979
2018-02-12T20:32:20.916Z,979
2018-02-12T20:33:23.482Z,979
2018-02-12T20:34:25.962Z,979.1
2018-02-12T20:35:28.577Z,979
2018-02-12T20:36:31.077Z,979.1
2018-02-12T20:37:33.551Z,979.1
2018-02-12T20:38:36.036Z,979.1
2018-02-12T20:39:38.681Z,979
2018-02-12T20:40:41.189Z,979.1
2018-02-12T20:41:43.692Z,979.1
2018-02-12T20:42:46.173Z,979.1
2018-02-12T20:43:48.773Z,979.1
2018-02-12T20:44:51.277Z,979.1
2018-02-12T20:45:53.816Z,979
2018-02-12T20:46:56.294Z,979.1
2018-02-12T20:47:58.768Z,979.1
2018-02-12T20:49:06.921Z,979.1
2018-02-12T20:50:09.635Z,979.1
2018-02-12T20:51:12.112Z,979.1
2018-02-12T20:52:14.635Z,979.1
2018-02-12T20:53:17.098Z,979
2018-02-12T20:54:19.560Z,979.1
2018-02-12T20:55:22.297Z,979.2
2018-02-12T20:56:24.777Z,979.2
2018-02-12T20:57:27.307Z,979.1
2018-02-12T20:58:29.883Z,979
2018-02-12T20:59:32.462Z,978.8
2018-02-12T21:00:34.899Z,978.9
2018-02-12T21:01:37.348Z,979
2018-02-12T21:02:39.795Z,979
2018-02-12T21:03:42.181Z,978.9
2018-02-12T21:04:44.664Z,978.9
2018-02-12T21:05:47.127Z,978.9
2018-02-12T21:06:54.475Z,978.9
2018-02-12T21:07:57.088Z,978.9
2018-02-12T21:08:59.626Z,978.9
2018-02-12T21:10:02.263Z,978.9
2018-02-12T21:11:04.664Z,978.9
2018-02-12T21:12:07.164Z,978.9
2018-02-12T21:13:09.694Z,978.9
2018-02-12T21:14:12.199Z,978.9
2018-02-12T21:15:14.745Z,978.9
2018-02-12T21:16:17.383Z,978.9
2018-02-12T21:17:20.415Z,978.9
2018-02-12T21:18:23.657Z,978.9
2018-02-12T21:19:26.121Z,978.9
2018-02-12T21:20:29.084Z,979
2018-02-12T21:21:31.891Z,978.9
2018-02-12T21:22:34.349Z,978.9
2018-02-12T21:23:36.860Z,978.9
2018-02-12T21:24:39.354Z,978.9
2018-02-12T21:25:41.800Z,978.9
2018-02-12T21:26:44.217Z,978.9
2018-02-12T21:27:46.691Z,978.9
2018-02-12T21:28:49.246Z,978.7
2018-02-12T21:29:51.693Z,978.9
2018-02-12T21:30:54.253Z,978.9
2018-02-12T21:31:56.652Z,978.9
2018-02-12T21:32:59.244Z,978.9
2018-02-12T21:34:01.749Z,978.9
2018-02-12T21:35:04.239Z,979
2018-02-12T21:36:06.728Z,978.9
2018-02-12T21:37:09.301Z,978.8
2018-02-12T21:38:11.715Z,979
2018-02-12T21:39:14.206Z,979
2018-02-12T21:40:16.606Z,979
2018-02-12T21:41:19.063Z,978.9
2018-02-12T21:42:21.511Z,979
2018-02-12T21:43:24.247Z,979
2018-02-12T21:44:26.701Z,979
2018-02-12T21:45:29.197Z,979
2018-02-12T21:46:31.657Z,979
2018-02-12T21:47:34.212Z,979
2018-02-12T21:48:36.656Z,979
2018-02-12T21:49:39.200Z,979
2018-02-12T21:50:41.733Z,979
2018-02-12T21:51:44.293Z,978.9
2018-02-12T21:52:46.701Z,979
2018-02-12T21:53:49.245Z,979
2018-02-12T21:54:51.711Z,979
2018-02-12T21:55:54.205Z,979
2018-02-12T21:56:56.757Z,979
2018-02-12T21:57:59.189Z,978.9
2018-02-12T21:59:01.646Z,979.1
2018-02-12T22:00:04.124Z,979
2018-02-12T22:01:06.582Z,979.1
2018-02-12T22:02:09.072Z,979
2018-02-12T22:03:11.499Z,979
2018-02-12T22:04:13.920Z,979.1
2018-02-12T22:05:16.459Z,979
2018-02-12T22:06:21.401Z,979
2018-02-12T22:07:23.835Z,979.1
2018-02-12T22:08:26.276Z,979.1
2018-02-12T22:09:28.696Z,979.1
2018-02-12T22:10:31.128Z,979
2018-02-12T22:11:33.579Z,979
2018-02-12T22:12:36.040Z,979.1
2018-02-12T22:13:38.481Z,979
2018-02-12T22:14:40.863Z,979.1
2018-02-12T22:15:43.268Z,979
2018-02-12T22:16:45.647Z,979
2018-02-12T22:17:48.109Z,978.9
2018-02-12T22:18:50.532Z,979
2018-02-12T22:19:52.957Z,979.1
2018-02-12T22:20:55.454Z,979.1
2018-02-12T22:21:57.976Z,979.1
2018-02-12T22:23:00.540Z,979
2018-02-12T22:24:03.001Z,979.1
2018-02-12T22:25:05.417Z,979.1
2018-02-12T22:26:07.957Z,979
2018-02-12T22:27:10.346Z,979.1
2018-02-12T22:28:12.766Z,979
2018-02-12T22:29:15.217Z,979.1
2018-02-12T22:30:17.716Z,978.9
2018-02-12T22:31:20.128Z,979
2018-02-12T22:32:22.690Z,979.1
2018-02-12T22:33:26.940Z,979.1
2018-02-12T22:34:29.388Z,979.1
2018-02-12T22:35:31.864Z,979.1
2018-02-12T22:36:34.310Z,979.1
2018-02-12T22:37:36.710Z,979.1
2018-02-12T22:38:39.135Z,979.1
2018-02-12T22:39:41.570Z,979
2018-02-12T22:40:43.926Z,979.1
2018-02-12T22:41:46.399Z,979.1
2018-02-12T22:42:48.953Z,979.1
2018-02-12T22:43:51.457Z,979.1
2018-02-12T22:44:53.856Z,979.1
2018-02-12T22:45:56.271Z,979.1
2018-02-12T22:46:58.695Z,979.1
2018-02-12T22:48:01.484Z,979.1
2018-02-12T22:49:03.888Z,979.1
2018-02-12T22:50:06.415Z,979.1
2018-02-12T22:51:08.908Z,979.1
2018-02-12T22:52:11.382Z,979.1
2018-02-12T22:53:14.590Z,979.1
2018-02-12T22:54:17.563Z,979.1
2018-02-12T22:55:20.045Z,979.1
2018-02-12T22:56:27.471Z,979
2018-02-12T22:57:29.850Z,978.9
2018-02-12T22:58:37.122Z,979.1
2018-02-12T22:59:39.580Z,978.8
2018-02-12T23:00:41.987Z,979.1
2018-02-12T23:01:44.373Z,979
2018-02-12T23:02:46.810Z,979.1
2018-02-12T23:03:49.247Z,979.1
2018-02-12T23:04:51.643Z,979.2
2018-02-12T23:05:54.038Z,979.1
2018-02-12T23:07:01.372Z,979.1
2018-02-12T23:08:03.756Z,979.2
2018-02-12T23:09:09.527Z,979.2
2018-02-12T23:10:11.950Z,979.3
2018-02-12T23:11:14.375Z,979.3
2018-02-12T23:12:16.766Z,979.2
2018-02-12T23:13:19.268Z,979.2
2018-02-12T23:14:21.712Z,979.2
2018-02-12T23:15:24.145Z,979.3
2018-02-12T23:16:26.529Z,979.2
2018-02-12T23:17:28.876Z,979.3
2018-02-12T23:18:31.353Z,979.4
2018-02-12T23:19:34.009Z,979.4
2018-02-12T23:20:36.435Z,979.5
2018-02-12T23:21:38.831Z,979.4
2018-02-12T23:22:41.245Z,979.1
2018-02-12T23:23:43.687Z,979.5
2018-02-12T23:24:46.096Z,979.4
2018-02-12T23:25:48.487Z,979.5
2018-02-12T23:26:50.931Z,979.4
2018-02-12T23:27:53.337Z,979.4
2018-02-12T23:28:55.754Z,979.4
2018-02-12T23:29:58.124Z,979.4
2018-02-12T23:31:00.537Z,979.2
2018-02-12T23:32:02.983Z,979.4
2018-02-12T23:33:05.372Z,979.4
2018-02-12T23:34:07.719Z,979.4
2018-02-12T23:35:10.785Z,979.4
2018-02-12T23:36:13.177Z,979.5
2018-02-12T23:37:15.612Z,979.5
2018-02-12T23:38:18.039Z,979.4
2018-02-12T23:39:20.475Z,979.4
2018-02-12T23:40:22.929Z,979.5
2018-02-12T23:41:25.309Z,979.5
2018-02-12T23:42:27.748Z,979.5
2018-02-12T23:43:30.170Z,979.5
2018-02-12T23:44:32.607Z,979.5
2018-02-12T23:45:34.978Z,979.5
2018-02-12T23:46:37.333Z,979.5
2018-02-12T23:47:39.804Z,979.5
2018-02-12T23:48:42.225Z,979.5
2018-02-12T23:49:44.630Z,979.6
2018-02-12T23:50:46.986Z,979.6
2018-02-12T23:51:49.712Z,979.6
2018-02-12T23:52:52.088Z,979.5
2018-02-12T23:53:54.511Z,979.5
2018-02-12T23:54:56.884Z,979.5
2018-02-12T23:55:59.308Z,979.5
2018-02-12T23:57:01.729Z,979.5
2018-02-12T23:58:04.117Z,979.5
2018-02-12T23:59:06.623Z,979.3
